Time;durP1;ratioP1;P1;durP2;ratioP2;P2;SDS_P1;SDS_P2;PMS_P1;PMS_P2;Temp;Humidity;BMP_temperature;BMP_pressure;BME280_temperature;BME280_humidity;BME280_pressure;Samples;Min_cycle;Max_cycle;Signal;HPM_P1;HPM_P2
2021/12/06 00:01:13;;;;;;;8.43;6.10;;;5.30;82.50;5.30;95508.00;;;;5056538;28;20197;-83
2021/12/06 00:03:47;;;;;;;8.60;6.07;;;5.30;82.60;5.40;95506.00;;;;5052451;28;20189;-84
2021/12/06 00:06:16;;;;;;;8.97;5.97;;;5.30;82.70;5.40;95492.00;;;;5050435;28;20298;-83
2021/12/06 00:08:43;;;;;;;7.53;6.00;;;5.30;82.80;5.40;95492.00;;;;5053199;28;20770;-83
2021/12/06 00:11:11;;;;;;;7.30;6.17;;;5.30;82.80;5.40;95505.00;;;;5053059;28;20200;-83
2021/12/06 00:13:41;;;;;;;8.57;5.93;;;5.30;82.70;5.40;95504.00;;;;5052532;28;20243;-83
2021/12/06 00:16:14;;;;;;;7.43;6.13;;;5.30;82.90;5.40;95513.00;;;;5050247;28;20725;-83
2021/12/06 00:18:44;;;;;;;7.07;6.37;;;5.40;83.10;5.50;95513.00;;;;5052841;28;20207;-83
2021/12/06 00:21:12;;;;;;;6.83;5.80;;;5.40;83.20;5.50;95522.00;;;;5041300;28;20224;-84
2021/12/06 00:23:40;;;;;;;9.63;6.53;;;5.40;83.10;5.50;95521.00;;;;5051929;28;20295;-83
2021/12/06 00:26:10;;;;;;;10.77;6.50;;;5.40;82.90;5.50;95523.00;;;;5049194;28;20288;-83
2021/12/06 00:28:38;;;;;;;8.13;6.20;;;5.40;82.90;5.60;95519.00;;;;5051281;28;20225;-83
2021/12/06 00:31:06;;;;;;;7.40;6.03;;;5.50;83.10;5.60;95526.00;;;;5051943;28;20197;-83
2021/12/06 00:33:33;;;;;;;9.10;6.03;;;5.50;83.20;5.60;95522.00;;;;5052621;28;20224;-83
2021/12/06 00:36:06;;;;;;;8.23;5.90;;;5.50;83.20;5.60;95522.00;;;;5050163;28;20203;-83
2021/12/06 00:38:36;;;;;;;10.73;5.90;;;5.60;83.30;5.70;95524.00;;;;5052095;28;20291;-83
2021/12/06 00:41:05;;;;;;;8.47;5.90;;;5.60;83.20;5.70;95517.00;;;;5051151;28;20189;-83
2021/12/06 00:43:33;;;;;;;6.87;6.17;;;5.60;83.20;5.70;95514.00;;;;5051362;28;20197;-83
2021/12/06 00:46:01;;;;;;;8.83;6.37;;;5.60;83.00;5.70;95517.00;;;;5049621;28;20224;-83
2021/12/06 00:48:28;;;;;;;8.33;6.50;;;5.60;83.10;5.70;95527.00;;;;5051954;28;20216;-82
2021/12/06 00:50:55;;;;;;;8.77;6.20;;;5.60;83.00;5.70;95526.00;;;;5052591;28;20211;-83
2021/12/06 00:53:24;;;;;;;10.67;6.30;;;5.60;83.10;5.80;95524.00;;;;5051786;28;20200;-83
2021/12/06 00:55:51;;;;;;;8.53;6.63;;;5.60;83.00;5.80;95545.00;;;;5050941;28;20201;-83
2021/12/06 00:58:19;;;;;;;12.03;7.07;;;5.70;83.10;5.80;95540.00;;;;5051436;28;20287;-83
2021/12/06 01:00:50;;;;;;;12.27;6.33;;;5.70;83.20;5.80;95545.00;;;;5051159;28;20201;-83
2021/12/06 01:03:23;;;;;;;9.30;6.20;;;5.70;83.30;5.80;95554.00;;;;5051071;28;20217;-83
2021/12/06 01:05:50;;;;;;;9.77;6.73;;;5.70;83.40;5.90;95543.00;;;;5049756;28;20714;-84
2021/12/06 01:08:19;;;;;;;12.33;7.87;;;5.70;83.50;5.90;95552.00;;;;5051656;28;20311;-84
2021/12/06 01:10:49;;;;;;;12.20;7.33;;;5.80;83.60;5.90;95552.00;;;;5051486;28;20307;-83
2021/12/06 01:13:16;;;;;;;17.33;8.07;;;5.80;83.60;5.90;95557.00;;;;5051570;28;20216;-83
2021/12/06 01:15:45;;;;;;;19.27;8.23;;;5.80;83.70;6.00;95565.00;;;;5051099;28;20758;-83
2021/12/06 01:18:20;;;;;;;18.53;8.67;;;5.80;83.80;6.00;95561.00;;;;5050352;28;20276;-84
2021/12/06 01:20:53;;;;;;;16.13;9.03;;;5.80;83.80;6.00;95568.00;;;;5039748;28;20193;-83
2021/12/06 01:23:26;;;;;;;12.10;8.10;;;5.90;83.90;6.00;95571.00;;;;5063171;22;20664;-90
2021/12/06 01:26:11;;;;;;;13.37;8.70;;;5.90;83.90;6.10;95577.00;;;;5031281;28;20228;-89
2021/12/06 01:29:03;;;;;;;12.90;7.60;;;5.90;84.00;6.10;95583.00;;;;5032730;28;20225;-89
2021/12/06 01:31:42;;;;;;;18.07;8.47;;;6.00;84.00;6.20;95575.00;;;;5034747;28;20201;-89
2021/12/06 01:39:09;;;;;;;19.33;8.20;;;6.00;84.00;6.20;95582.00;;;;5031735;28;20233;-90
2021/12/06 01:39:49;;;;;;;16.10;8.53;;;6.10;84.00;6.20;95585.00;;;;5030675;28;20212;-89
2021/12/06 01:42:18;;;;;;;12.33;8.30;;;6.10;84.10;6.20;95578.00;;;;5031317;28;20202;-89
2021/12/06 01:44:48;;;;;;;11.00;8.17;;;6.10;84.10;6.30;95579.00;;;;5029413;28;20208;-90
2021/12/06 01:47:18;;;;;;;14.57;9.17;;;6.20;84.10;6.30;95576.00;;;;5029678;28;20652;-90
2021/12/06 01:49:53;;;;;;;16.57;9.10;;;6.30;84.20;6.30;95587.00;;;;5031593;28;20313;-89
2021/12/06 01:52:25;;;;;;;13.90;8.80;;;6.30;84.00;6.40;95583.00;;;;5031661;28;20193;-89
2021/12/06 01:54:55;;;;;;;16.67;8.80;;;6.30;84.00;6.40;95583.00;;;;5029954;28;20284;-89
2021/12/06 01:57:26;;;;;;;13.37;8.73;;;6.40;83.90;6.40;95589.00;;;;5029668;28;20197;-89
2021/12/06 01:59:54;;;;;;;14.77;9.37;;;6.40;83.80;6.50;95590.00;;;;5019429;28;20210;-90
2021/12/06 02:02:22;;;;;;;14.80;8.60;;;6.40;83.90;6.50;95594.00;;;;5031445;28;20970;-89
2021/12/06 02:04:49;;;;;;;14.47;9.33;;;6.40;83.70;6.50;95590.00;;;;5030165;28;20201;-89
2021/12/06 02:07:21;;;;;;;10.63;8.77;;;6.40;83.70;6.50;95589.00;;;;5032915;28;20201;-88
2021/12/06 02:09:51;;;;;;;11.43;8.53;;;6.40;84.30;6.50;95592.00;;;;5035287;28;20225;-89
2021/12/06 02:12:20;;;;;;;16.30;8.90;;;6.50;83.70;6.60;95586.00;;;;5033610;28;20195;-88
2021/12/06 02:14:56;;;;;;;13.20;8.93;;;6.50;83.80;6.60;95589.00;;;;5026861;28;20287;-88
2021/12/06 02:17:28;;;;;;;15.87;9.03;;;6.50;83.60;6.60;95598.00;;;;5033536;28;20659;-89
2021/12/06 02:20:02;;;;;;;16.27;9.70;;;6.50;83.50;6.60;95595.00;;;;5033605;28;20205;-89
2021/12/06 02:22:34;;;;;;;14.63;9.17;;;6.50;83.50;6.60;95593.00;;;;5034479;28;20729;-90
2021/12/06 02:25:03;;;;;;;19.00;9.47;;;6.50;83.50;6.70;95600.00;;;;5021762;28;20569;-89
2021/12/06 02:27:31;;;;;;;15.10;9.23;;;6.50;83.50;6.60;95602.00;;;;5033377;28;20193;-89
2021/12/06 02:30:04;;;;;;;12.47;9.17;;;6.50;83.30;6.70;95598.00;;;;5033753;28;20213;-89
2021/12/06 02:32:31;;;;;;;22.33;10.43;;;6.50;83.30;6.70;95597.00;;;;5034308;28;20228;-89
2021/12/06 02:34:59;;;;;;;13.67;9.57;;;6.50;83.30;6.70;95595.00;;;;5033327;28;20197;-89
2021/12/06 02:37:32;;;;;;;24.23;9.97;;;6.50;83.40;6.70;95594.00;;;;5034406;28;20212;-89
2021/12/06 02:40:02;;;;;;;14.20;9.47;;;6.60;83.60;6.70;95597.00;;;;5034809;28;20217;-90
2021/12/06 02:42:29;;;;;;;16.23;9.07;;;6.60;83.60;6.80;95598.00;;;;5034726;28;20565;-89
2021/12/06 02:44:56;;;;;;;16.70;9.07;;;6.60;83.60;6.80;95604.00;;;;5032067;28;20208;-89
2021/12/06 02:47:23;;;;;;;29.67;10.77;;;6.70;83.70;6.80;95614.00;;;;5034105;28;20197;-88
2021/12/06 02:49:51;;;;;;;22.00;9.60;;;6.60;83.50;6.80;95607.00;;;;5034271;28;20225;-89
2021/12/06 02:52:19;;;;;;;20.27;9.63;;;6.70;83.60;6.80;95612.00;;;;5034450;28;20205;-89
2021/12/06 02:54:54;;;;;;;23.20;10.20;;;6.70;83.50;6.80;95614.00;;;;5032091;28;20208;-89
2021/12/06 02:57:32;;;;;;;35.43;10.17;;;6.80;83.50;6.80;95618.00;;;;5033860;28;20208;-89
2021/12/06 03:00:00;;;;;;;18.97;10.23;;;6.70;83.50;6.80;95627.00;;;;5032888;28;20201;-89
2021/12/06 03:02:30;;;;;;;31.73;10.63;;;6.70;83.50;6.80;95628.00;;;;5034057;28;20213;-90
2021/12/06 03:04:58;;;;;;;28.27;10.37;;;6.70;83.50;6.80;95635.00;;;;5033938;28;20280;-89
2021/12/06 03:07:28;;;;;;;34.50;10.37;;;6.70;83.50;6.80;95631.00;;;;5043117;28;20200;-89
2021/12/06 03:09:57;;;;;;;13.43;8.37;;;6.70;83.50;6.80;95628.00;;;;5053935;28;20653;-89
2021/12/06 03:12:34;;;;;;;21.93;9.37;;;6.60;83.30;6.80;95638.00;;;;5048731;28;20213;-89
2021/12/06 03:15:05;;;;;;;30.70;9.53;;;6.60;83.40;6.80;95636.00;;;;5032659;28;20615;-89
2021/12/06 03:17:34;;;;;;;15.97;10.13;;;6.60;83.50;6.80;95639.00;;;;5033839;28;20300;-89
2021/12/06 03:20:09;;;;;;;28.37;9.23;;;6.60;83.50;6.80;95652.00;;;;5033968;28;20708;-89
2021/12/06 03:22:36;;;;;;;36.20;9.97;;;6.70;83.60;6.80;95648.00;;;;5033258;28;20236;-89
2021/12/06 03:25:10;;;;;;;30.17;9.73;;;6.70;83.60;6.80;95648.00;;;;5033344;28;20678;-89
2021/12/06 03:27:37;;;;;;;25.60;10.43;;;6.70;83.40;6.80;95658.00;;;;5033560;28;20683;-89
2021/12/06 03:30:07;;;;;;;31.60;10.10;;;6.60;83.30;6.80;95657.00;;;;5034034;28;20225;-89
2021/12/06 03:32:34;;;;;;;26.67;9.77;;;6.60;83.30;6.80;95658.00;;;;5033285;28;20229;-89
2021/12/06 03:35:01;;;;;;;37.00;10.40;;;6.60;83.40;6.80;95666.00;;;;5032606;28;20196;-89
2021/12/06 03:37:28;;;;;;;19.23;10.00;;;6.70;83.50;6.80;95661.00;;;;5032376;28;20204;-89
2021/12/06 03:39:55;;;;;;;25.67;9.90;;;6.60;83.30;6.70;95660.00;;;;5032600;28;20197;-89
2021/12/06 03:42:25;;;;;;;40.00;10.57;;;6.70;83.40;6.70;95667.00;;;;5033556;28;20229;-89
2021/12/06 03:44:53;;;;;;;33.87;10.10;;;6.60;83.40;6.70;95672.00;;;;5032081;28;20198;-89
2021/12/06 03:47:26;;;;;;;22.00;10.17;;;6.60;83.40;6.70;95673.00;;;;5033613;28;20193;-89
2021/12/06 03:49:54;;;;;;;20.53;10.73;;;6.60;83.40;6.70;95676.00;;;;5012379;28;20237;-89
2021/12/06 03:52:23;;;;;;;22.87;10.10;;;6.60;83.50;6.70;95674.00;;;;5014103;28;20348;-89
2021/12/06 03:54:51;;;;;;;33.17;10.67;;;6.60;83.50;6.70;95675.00;;;;5020001;28;20229;-89
2021/12/06 03:57:20;;;;;;;25.73;10.07;;;6.60;83.60;6.70;95683.00;;;;5033112;28;20201;-90
2021/12/06 03:59:50;;;;;;;19.33;10.13;;;6.60;83.70;6.70;95683.00;;;;5032631;28;20201;-89
2021/12/06 04:02:17;;;;;;;17.87;10.30;;;6.60;83.70;6.80;95677.00;;;;5033514;28;20251;-89
2021/12/06 04:04:45;;;;;;;23.00;9.83;;;6.60;83.80;6.80;95688.00;;;;5031539;28;20211;-89
2021/12/06 04:07:12;;;;;;;30.03;10.73;;;6.60;83.90;6.80;95685.00;;;;5032021;28;20285;-89
2021/12/06 04:09:40;;;;;;;22.93;9.63;;;6.60;83.90;6.80;95687.00;;;;5032934;28;20227;-90
2021/12/06 04:12:11;;;;;;;26.27;9.80;;;6.60;83.80;6.80;95690.00;;;;5033266;28;20205;-89
2021/12/06 04:14:39;;;;;;;23.30;9.83;;;6.70;83.90;6.80;95693.00;;;;5031289;28;20546;-88
2021/12/06 04:17:09;;;;;;;26.07;9.70;;;6.70;83.90;6.80;95700.00;;;;5031295;28;20198;-90
2021/12/06 04:19:36;;;;;;;27.40;9.43;;;6.70;83.80;6.80;95696.00;;;;5033092;28;20205;-89
2021/12/06 04:22:04;;;;;;;26.43;9.63;;;6.70;83.70;6.80;95693.00;;;;5033051;28;20352;-90
2021/12/06 04:24:32;;;;;;;16.63;9.40;;;6.70;83.60;6.80;95695.00;;;;5030946;28;20280;-90
2021/12/06 04:27:02;;;;;;;25.10;10.30;;;6.70;83.60;6.80;95698.00;;;;5031388;28;20200;-90
2021/12/06 04:29:29;;;;;;;20.87;10.00;;;6.70;83.80;6.80;95696.00;;;;5030823;28;20313;-89
2021/12/06 04:31:57;;;;;;;22.73;10.87;;;6.70;83.60;6.80;95699.00;;;;5028853;28;20204;-89
2021/12/06 04:34:25;;;;;;;16.23;9.30;;;6.70;83.50;6.80;95704.00;;;;5032057;28;20225;-89
2021/12/06 04:36:53;;;;;;;22.87;9.83;;;6.80;83.60;6.90;95709.00;;;;5036521;28;20205;-89
2021/12/06 04:39:22;;;;;;;17.87;9.40;;;6.70;83.50;6.90;95722.00;;;;5036156;28;20216;-90
2021/12/06 04:41:50;;;;;;;14.40;8.93;;;6.70;83.70;6.90;95716.00;;;;5032210;28;20220;-89
2021/12/06 04:44:17;;;;;;;14.80;8.90;;;6.70;83.60;6.90;95719.00;;;;5031157;28;20221;-88
2021/12/06 04:46:44;;;;;;;16.23;9.07;;;6.70;83.60;6.90;95719.00;;;;5024323;28;20194;-89
2021/12/06 04:49:12;;;;;;;20.13;10.23;;;6.80;83.80;6.90;95719.00;;;;5031856;28;20272;-90
2021/12/06 04:51:45;;;;;;;20.70;10.07;;;6.80;83.80;6.90;95710.00;;;;5032430;28;20276;-89
2021/12/06 04:54:13;;;;;;;22.23;9.80;;;6.80;83.60;6.90;95718.00;;;;5031927;28;20209;-89
2021/12/06 04:56:45;;;;;;;21.33;10.97;;;6.70;83.50;6.90;95714.00;;;;5032205;28;20194;-90
2021/12/06 04:59:18;;;;;;;28.53;11.73;;;6.80;83.50;6.90;95729.00;;;;5032400;28;20193;-90
2021/12/06 05:01:48;;;;;;;25.17;11.27;;;6.70;83.50;6.80;95723.00;;;;5031528;28;20209;-89
2021/12/06 05:04:21;;;;;;;19.10;11.27;;;6.70;83.60;6.90;95728.00;;;;5031816;28;20312;-89
2021/12/06 05:06:59;;;;;;;29.90;11.70;;;6.70;83.60;6.90;95733.00;;;;5029499;28;20193;-88
2021/12/06 05:09:33;;;;;;;20.60;11.30;;;6.80;83.90;6.90;95740.00;;;;5032110;28;20197;-89
2021/12/06 05:12:01;;;;;;;34.80;11.30;;;6.80;83.80;6.90;95738.00;;;;5032381;28;20196;-88
2021/12/06 05:14:28;;;;;;;27.57;10.33;;;6.80;83.80;6.90;95744.00;;;;5032135;28;20236;-88
2021/12/06 05:16:56;;;;;;;21.57;9.53;;;6.80;83.60;6.90;95742.00;;;;5030838;28;20576;-89
2021/12/06 05:19:23;;;;;;;19.73;10.70;;;6.80;83.60;6.90;95747.00;;;;5031239;28;20199;-89
2021/12/06 05:21:53;;;;;;;23.43;10.47;;;6.70;83.60;6.90;95751.00;;;;5032187;28;20223;-89
2021/12/06 05:24:20;;;;;;;18.23;9.63;;;6.80;83.80;6.90;95750.00;;;;5031748;28;20224;-89
2021/12/06 05:26:47;;;;;;;23.33;10.43;;;6.70;83.70;6.90;95754.00;;;;5030098;28;20655;-89
2021/12/06 05:29:24;;;;;;;19.60;9.73;;;6.80;83.80;6.90;95761.00;;;;5031672;28;20196;-89
2021/12/06 05:31:55;;;;;;;16.63;9.53;;;6.80;83.70;7.00;95762.00;;;;5032179;28;20208;-89
2021/12/06 05:34:30;;;;;;;15.00;8.30;;;6.80;83.80;6.90;95775.00;;;;5030483;28;20226;-88
2021/12/06 05:37:00;;;;;;;14.30;8.53;;;6.80;83.60;6.90;95775.00;;;;5031474;28;20247;-90
2021/12/06 05:39:30;;;;;;;14.53;8.03;;;6.80;83.50;6.90;95777.00;;;;5031735;28;20197;-89
2021/12/06 05:42:04;;;;;;;14.30;8.53;;;6.80;83.40;6.80;95774.00;;;;5034863;28;20284;-90
2021/12/06 05:44:32;;;;;;;12.43;7.93;;;6.80;83.20;6.80;95791.00;;;;5033833;28;20197;-88
2021/12/06 05:47:00;;;;;;;10.97;7.33;;;6.80;83.20;6.80;95786.00;;;;5035013;28;20189;-87
2021/12/06 05:49:28;;;;;;;11.43;7.67;;;6.80;83.20;6.80;95789.00;;;;5035457;28;20197;-89
2021/12/06 05:51:55;;;;;;;11.37;7.40;;;6.80;83.20;6.80;95789.00;;;;5036156;28;20718;-89
2021/12/06 05:54:25;;;;;;;12.77;7.53;;;6.80;83.10;6.80;95799.00;;;;5035843;28;20250;-88
2021/12/06 05:56:53;;;;;;;12.30;7.63;;;6.80;83.10;6.80;95807.00;;;;5035365;28;20205;-89
2021/12/06 05:59:21;;;;;;;12.10;7.83;;;6.80;83.10;6.80;95804.00;;;;5035424;28;20562;-88
2021/12/06 06:01:50;;;;;;;12.10;7.97;;;6.80;82.90;6.80;95814.00;;;;5015534;28;20277;-89
2021/12/06 06:04:18;;;;;;;11.43;7.60;;;6.80;83.00;6.80;95823.00;;;;5015946;28;20570;-89
2021/12/06 06:06:45;;;;;;;13.97;8.03;;;6.80;83.10;6.80;95816.00;;;;5030755;28;20202;-89
2021/12/06 06:09:12;;;;;;;13.80;8.10;;;6.90;83.20;6.80;95817.00;;;;5036551;28;20223;-89
2021/12/06 06:11:41;;;;;;;13.33;8.27;;;6.80;82.90;6.90;95837.00;;;;5035500;28;20225;-89
2021/12/06 06:14:09;;;;;;;11.67;7.73;;;6.80;82.90;6.90;95827.00;;;;5035149;28;20671;-90
2021/12/06 06:16:46;;;;;;;13.30;8.07;;;6.80;83.10;6.90;95850.00;;;;5035455;28;20267;-90
2021/12/06 06:19:14;;;;;;;14.53;8.67;;;6.80;83.00;6.90;95846.00;;;;5036012;28;20665;-88
2021/12/06 06:21:41;;;;;;;14.63;8.40;;;6.80;83.00;6.80;95845.00;;;;5029316;28;20198;-87
2021/12/06 06:24:09;;;;;;;14.20;8.60;;;6.90;83.00;6.80;95849.00;;;;5016711;28;20819;-89
2021/12/06 06:26:36;;;;;;;15.50;8.47;;;6.80;82.90;6.80;95862.00;;;;5034090;28;20639;-89
2021/12/06 06:29:05;;;;;;;13.37;7.80;;;6.80;82.90;6.80;95857.00;;;;5035725;28;20194;-88
2021/12/06 06:31:32;;;;;;;13.60;8.50;;;6.80;82.90;6.80;95866.00;;;;5034145;28;20216;-90
2021/12/06 06:33:59;;;;;;;13.77;8.30;;;6.80;82.80;6.80;95870.00;;;;5030215;28;20213;-90
2021/12/06 06:36:26;;;;;;;17.43;8.70;;;6.80;82.90;6.80;95875.00;;;;5032937;28;20296;-89
2021/12/06 06:38:53;;;;;;;14.27;8.50;;;6.80;83.00;6.80;95871.00;;;;5034956;28;20297;-89
2021/12/06 06:41:20;;;;;;;15.10;8.60;;;6.80;83.10;6.80;95877.00;;;;5034759;28;20201;-89
2021/12/06 06:43:49;;;;;;;16.17;8.77;;;6.80;83.00;6.80;95886.00;;;;5035185;28;20214;-89
2021/12/06 06:46:17;;;;;;;13.57;8.27;;;6.80;83.10;6.80;95878.00;;;;5033453;28;20193;-89
2021/12/06 06:48:45;;;;;;;14.63;8.33;;;6.80;83.10;6.80;95876.00;;;;5035085;28;20236;-87
2021/12/06 06:51:12;;;;;;;14.60;8.73;;;6.80;83.10;6.80;95879.00;;;;5034337;28;20231;-88
2021/12/06 06:53:39;;;;;;;13.80;8.27;;;6.80;83.20;6.80;95888.00;;;;5034048;28;20217;-89
2021/12/06 06:56:06;;;;;;;13.07;7.93;;;6.80;83.20;6.80;95888.00;;;;5031229;28;20201;-89
2021/12/06 06:58:33;;;;;;;12.60;7.40;;;6.80;83.20;6.80;95884.00;;;;5034766;28;20585;-86
2021/12/06 07:01:01;;;;;;;15.87;8.23;;;6.70;82.90;6.80;95899.00;;;;5032405;28;20204;-88
2021/12/06 07:03:31;;;;;;;12.83;7.50;;;6.70;82.90;6.90;95894.00;;;;5034743;28;20212;-89
2021/12/06 07:05:59;;;;;;;10.50;7.50;;;6.80;83.00;6.90;95888.00;;;;5032871;28;20201;-88
2021/12/06 07:08:27;;;;;;;13.83;7.63;;;6.70;82.90;6.90;95906.00;;;;5034632;28;20199;-88
2021/12/06 07:10:54;;;;;;;13.80;8.57;;;6.70;83.00;6.90;95916.00;;;;5034484;28;20284;-87
2021/12/06 07:13:22;;;;;;;14.13;8.23;;;6.70;83.00;6.80;95916.00;;;;5034920;28;20271;-89
2021/12/06 07:15:50;;;;;;;15.60;8.70;;;6.70;83.40;6.80;95916.00;;;;5032417;28;20201;-89
2021/12/06 07:18:17;;;;;;;15.60;8.20;;;6.70;83.20;6.80;95910.00;;;;5034528;28;20194;-88
2021/12/06 07:20:46;;;;;;;16.60;8.20;;;6.70;83.00;6.80;95914.00;;;;5038074;28;20244;-84
2021/12/06 07:23:13;;;;;;;13.07;7.80;;;6.70;83.00;6.90;95917.00;;;;5063911;22;20225;-85
2021/12/06 07:25:41;;;;;;;15.00;7.90;;;6.70;83.20;6.90;95918.00;;;;5033008;28;20666;-85
2021/12/06 07:28:08;;;;;;;13.57;8.20;;;6.80;83.50;7.00;95917.00;;;;5033716;28;20276;-86
2021/12/06 07:30:36;;;;;;;14.07;8.53;;;6.70;83.50;7.00;95920.00;;;;5033666;28;20225;-85
2021/12/06 07:33:03;;;;;;;15.27;8.77;;;6.90;83.70;7.00;95927.00;;;;5033560;28;20201;-86
2021/12/06 07:35:31;;;;;;;17.37;9.80;;;7.00;83.70;7.10;95934.00;;;;5033549;28;20204;-86
2021/12/06 07:38:02;;;;;;;17.67;9.07;;;6.80;83.60;7.10;95921.00;;;;5034088;28;20214;-87
2021/12/06 07:40:31;;;;;;;15.70;9.57;;;6.80;83.40;7.10;95931.00;;;;5029968;28;20198;-87
2021/12/06 07:43:00;;;;;;;13.67;8.17;;;6.80;83.50;7.10;95929.00;;;;5013627;28;20678;-86
2021/12/06 07:45:27;;;;;;;15.83;9.33;;;6.80;83.60;7.10;95937.00;;;;5020887;28;20557;-86
2021/12/06 07:47:54;;;;;;;17.13;10.50;;;6.90;83.80;7.10;95942.00;;;;5033427;28;20213;-86
2021/12/06 07:50:23;;;;;;;16.47;9.73;;;6.80;83.80;7.20;95937.00;;;;5033585;28;20689;-87
2021/12/06 07:52:53;;;;;;;16.17;9.80;;;6.80;83.50;7.20;95941.00;;;;5033954;28;20454;-87
2021/12/06 07:55:30;;;;;;;14.10;9.37;;;6.90;83.50;7.20;95937.00;;;;5034197;28;20194;-87
2021/12/06 07:57:59;;;;;;;15.90;10.20;;;7.00;83.60;7.20;95945.00;;;;5033441;28;20227;-85
2021/12/06 08:00:29;;;;;;;15.27;9.33;;;6.90;83.70;7.20;95954.00;;;;5033776;28;20197;-85
2021/12/06 08:02:56;;;;;;;16.50;9.33;;;6.90;83.30;7.20;95952.00;;;;5033174;28;20202;-85
2021/12/06 08:05:32;;;;;;;15.03;8.90;;;6.90;83.30;7.20;95951.00;;;;5030146;28;20193;-85
2021/12/06 08:08:04;;;;;;;15.53;9.30;;;6.90;83.50;7.20;95948.00;;;;5026033;28;20301;-86
2021/12/06 08:10:35;;;;;;;17.83;10.03;;;6.90;83.50;7.20;95956.00;;;;5032535;28;20591;-85
2021/12/06 08:13:03;;;;;;;14.63;9.13;;;6.90;83.20;7.20;95956.00;;;;5032778;28;20276;-84
2021/12/06 08:15:30;;;;;;;15.17;9.47;;;6.90;83.30;7.20;95956.00;;;;5031226;28;20588;-88
2021/12/06 08:17:57;;;;;;;13.70;8.70;;;7.10;83.60;7.30;95954.00;;;;5029895;28;20209;-85
2021/12/06 08:20:25;;;;;;;14.43;8.60;;;7.00;83.50;7.30;95966.00;;;;5028599;28;20193;-86
2021/12/06 08:22:53;;;;;;;15.27;8.80;;;7.00;83.60;7.30;95967.00;;;;5032507;28;20197;-85
2021/12/06 08:25:22;;;;;;;13.73;8.50;;;7.00;83.50;7.30;95971.00;;;;5030744;28;20193;-84
2021/12/06 08:27:51;;;;;;;15.63;9.17;;;7.00;83.30;7.30;95979.00;;;;5032351;28;20220;-85
2021/12/06 08:30:22;;;;;;;13.53;8.53;;;7.10;83.50;7.40;95981.00;;;;5023671;28;20198;-85
2021/12/06 08:32:50;;;;;;;15.80;9.53;;;7.10;83.50;7.40;95992.00;;;;5022639;28;20256;-85
2021/12/06 08:35:17;;;;;;;16.30;9.40;;;7.10;83.60;7.40;95987.00;;;;5030222;28;20198;-85
2021/12/06 08:37:44;;;;;;;14.70;8.17;;;7.10;83.70;7.50;95992.00;;;;5030456;28;20228;-85
2021/12/06 08:40:13;;;;;;;15.53;8.87;;;7.20;83.80;7.50;95996.00;;;;5032321;28;20201;-85
2021/12/06 08:42:41;;;;;;;12.23;7.73;;;7.20;83.60;7.50;95989.00;;;;5031379;28;20197;-85
2021/12/06 08:45:12;;;;;;;12.80;8.07;;;7.30;83.60;7.60;95990.00;;;;5033912;28;20212;-85
2021/12/06 08:47:40;;;;;;;11.97;7.40;;;7.30;83.50;7.60;95999.00;;;;5031402;28;20217;-86
2021/12/06 08:50:12;;;;;;;13.07;8.20;;;7.30;83.40;7.60;95997.00;;;;5032018;28;20202;-87
2021/12/06 08:52:39;;;;;;;14.10;8.07;;;7.40;83.50;7.70;96007.00;;;;5031975;28;20221;-85
2021/12/06 08:55:09;;;;;;;13.93;8.13;;;7.40;83.50;7.70;96009.00;;;;5031146;28;20198;-85
2021/12/06 08:57:37;;;;;;;13.27;8.40;;;7.40;83.40;7.70;96013.00;;;;5032494;28;20221;-86
2021/12/06 09:00:10;;;;;;;15.23;8.33;;;7.40;83.20;7.70;96007.00;;;;5032211;28;20557;-85
2021/12/06 09:02:38;;;;;;;13.53;8.77;;;7.40;83.00;7.80;96017.00;;;;5032164;28;20666;-84
2021/12/06 09:05:07;;;;;;;13.83;8.43;;;7.50;83.30;7.80;96023.00;;;;5030918;28;20224;-85
2021/12/06 09:07:34;;;;;;;13.10;8.03;;;7.50;83.60;7.90;96024.00;;;;5029649;28;20225;-85
2021/12/06 09:10:02;;;;;;;12.93;8.87;;;7.50;83.50;7.90;96023.00;;;;5028241;28;20208;-84
2021/12/06 09:12:32;;;;;;;11.80;8.53;;;7.60;83.50;8.00;96027.00;;;;5028968;28;20225;-85
2021/12/06 09:15:04;;;;;;;13.03;8.17;;;7.60;83.50;8.00;96028.00;;;;5035123;28;20193;-85
2021/12/06 09:17:32;;;;;;;12.87;8.53;;;7.70;83.70;8.10;96026.00;;;;5031755;28;20219;-84
2021/12/06 09:20:00;;;;;;;12.90;7.97;;;7.70;83.50;8.10;96028.00;;;;5032011;28;20197;-86
2021/12/06 09:22:27;;;;;;;12.83;8.00;;;7.70;83.50;8.10;96037.00;;;;5031598;28;20201;-84
2021/12/06 09:24:54;;;;;;;12.33;8.20;;;7.80;83.50;8.20;96041.00;;;;5029911;28;20208;-84
2021/12/06 09:27:23;;;;;;;11.80;7.57;;;7.80;83.30;8.20;96047.00;;;;5024317;28;20329;-84
2021/12/06 09:29:50;;;;;;;12.50;8.23;;;7.90;83.10;8.20;96048.00;;;;5011930;28;20200;-85
2021/12/06 09:32:18;;;;;;;12.40;8.50;;;7.90;83.70;8.30;96051.00;;;;5024937;28;20217;-84
2021/12/06 09:34:47;;;;;;;12.33;8.53;;;8.00;82.90;8.30;96046.00;;;;5029250;28;20237;-84
2021/12/06 09:37:19;;;;;;;14.00;9.17;;;8.00;82.80;8.30;96053.00;;;;5031195;28;20209;-86
2021/12/06 09:39:47;;;;;;;12.67;8.20;;;8.00;82.90;8.40;96054.00;;;;5034013;28;20193;-84
2021/12/06 09:42:15;;;;;;;12.53;8.30;;;8.00;82.70;8.40;96050.00;;;;5030614;28;20201;-84
2021/12/06 09:44:42;;;;;;;11.90;8.10;;;8.10;82.70;8.40;96051.00;;;;5030395;28;20224;-84
2021/12/06 09:47:09;;;;;;;10.87;7.93;;;8.20;82.80;8.50;96049.00;;;;5031092;28;20299;-85
2021/12/06 09:49:36;;;;;;;10.30;7.63;;;8.20;82.60;8.50;96044.00;;;;5031043;28;20206;-84
2021/12/06 09:52:11;;;;;;;10.17;7.67;;;8.20;82.60;8.60;96048.00;;;;5031128;28;20220;-85
2021/12/06 09:54:41;;;;;;;13.20;9.00;;;8.30;82.40;8.60;96049.00;;;;5031074;28;20201;-84
2021/12/06 09:57:10;;;;;;;13.33;8.57;;;8.30;82.30;8.60;96046.00;;;;5025418;28;20702;-84
2021/12/06 09:59:41;;;;;;;12.67;8.73;;;8.30;82.60;8.70;96050.00;;;;5012513;28;20205;-84
2021/12/06 10:02:12;;;;;;;12.43;8.47;;;8.30;82.50;8.80;96055.00;;;;5031285;28;20575;-85
2021/12/06 10:04:47;;;;;;;12.57;9.07;;;8.40;82.50;8.80;96047.00;;;;5030484;28;20208;-84
2021/12/06 10:07:17;;;;;;;13.40;9.10;;;8.50;82.50;8.90;96054.00;;;;5030173;28;20248;-84
2021/12/06 10:09:47;;;;;;;11.57;8.23;;;8.50;82.40;8.90;96055.00;;;;5031454;28;20178;-84
2021/12/06 10:12:17;;;;;;;11.80;8.70;;;8.70;82.60;8.90;96044.00;;;;5031103;28;20311;-84
2021/12/06 10:14:45;;;;;;;12.97;9.10;;;8.70;82.30;9.00;96049.00;;;;5030041;28;20205;-85
2021/12/06 10:17:15;;;;;;;13.93;9.50;;;8.70;81.90;9.00;96043.00;;;;5030201;28;20236;-85
2021/12/06 10:19:42;;;;;;;12.53;8.90;;;8.70;81.70;9.00;96039.00;;;;5031328;28;20276;-84
2021/12/06 10:22:10;;;;;;;12.40;8.73;;;8.80;81.70;9.00;96045.00;;;;5030818;28;20197;-85
2021/12/06 10:24:38;;;;;;;13.57;9.50;;;8.80;81.30;9.00;96040.00;;;;5030289;28;20209;-85
2021/12/06 10:27:15;;;;;;;12.67;8.53;;;8.80;81.30;9.00;96035.00;;;;5041665;28;20778;-84
2021/12/06 10:29:47;;;;;;;13.50;9.17;;;8.90;80.90;9.00;96045.00;;;;5053527;28;20331;-85
2021/12/06 10:32:17;;;;;;;13.10;9.47;;;8.80;81.10;9.10;96047.00;;;;5037907;28;20232;-85
2021/12/06 10:34:49;;;;;;;12.90;8.70;;;8.80;81.20;9.10;96044.00;;;;5053510;28;20193;-84
2021/12/06 10:37:39;;;;;;;12.80;9.27;;;8.80;81.40;9.20;96051.00;;;;5042170;28;20214;-85
2021/12/06 10:40:13;;;;;;;13.03;9.23;;;8.90;80.80;9.20;96046.00;;;;5034728;28;20197;-85
2021/12/06 10:42:44;;;;;;;19.83;10.37;;;8.90;81.30;9.20;96041.00;;;;5034606;28;20182;-85
2021/12/06 10:45:16;;;;;;;13.33;9.77;;;8.90;81.70;9.30;96044.00;;;;5033823;28;20193;-85
2021/12/06 10:47:44;;;;;;;15.10;10.43;;;8.90;81.60;9.30;96045.00;;;;5034626;28;20228;-85
2021/12/06 10:50:16;;;;;;;13.73;9.50;;;9.00;81.60;9.30;96044.00;;;;5034388;28;20255;-86
2021/12/06 10:52:56;;;;;;;14.53;9.57;;;9.00;81.10;9.30;96048.00;;;;5034531;28;20209;-85
2021/12/06 10:55:30;;;;;;;12.17;9.47;;;9.00;80.90;9.30;96041.00;;;;5033246;28;20247;-85
2021/12/06 10:58:01;;;;;;;14.33;10.03;;;9.00;81.40;9.30;96038.00;;;;5026482;28;20213;-85
2021/12/06 11:00:33;;;;;;;15.40;9.93;;;9.00;80.90;9.30;96034.00;;;;5034283;28;20269;-86
2021/12/06 11:03:01;;;;;;;12.63;9.43;;;9.00;80.90;9.20;96035.00;;;;5034047;28;20209;-85
2021/12/06 11:05:33;;;;;;;15.67;10.33;;;9.00;80.90;9.30;96030.00;;;;5032970;28;20247;-87
2021/12/06 11:08:13;;;;;;;15.90;11.00;;;9.00;81.10;9.30;96034.00;;;;5033899;28;20214;-86
2021/12/06 11:10:47;;;;;;;16.80;10.97;;;9.00;80.70;9.30;96039.00;;;;5033014;28;20219;-86
2021/12/06 11:13:18;;;;;;;14.97;10.77;;;9.00;81.00;9.30;96035.00;;;;5014133;28;20226;-86
2021/12/06 11:16:09;;;;;;;19.40;11.53;;;9.00;80.90;9.30;96036.00;;;;5050995;22;20237;-86